Главная страница
METAR-TAF:

METAR-TAF

Аэропорты :

Берлевог, Норвегия

широта: 70-52N, долгота: 029-02E, высота над уровнем моря: 1 м

Текущие метеонаблюдения

Эта сводка был подготовлена 6 часа и 4 минут назад, в 20:50 UTC
Ветер 10 Узел от восточный
Температура 7°C
Влажность 100%
Давление 995 hPa
Видимость: 2000 м
дымка

METAR: ENBV 202050Z 10010KT 6000 2000E BR VV005 07/07 Q0995

Время: 04:54 (02:54 UTC)

Прогноз

Эта сводка был подготовлена 9 часа и 54 минут назад, в 17:00 UTC
Прогноз действительный с 20-го 18 UTC до 20-го 21 UTC
Ветер 8 Узел от восточный
Видимость: 9000 м
небольшая облачность на высоте 500 фута
Рассеянная облачность на высоте 1500 фута
Вероятность 40%
С 20-го 18 UTC до 20-го 21 UTC
Видимость: 0500 м
на высоте 200 фута
дождь, Морось, туман

TAF: ENBV 201700Z 2018/2021 09008KT 9000 FEW005 BKN015 PROB40 2018/2021 0500 RADZ FG VV002

Метеонаблюдения и прогнозы для более 4000 аэропортов (сводки METAR и TAF).

Имеющиеся станции представлены на карте желтыми и красными точками.

Чтобы увидеть название станции, наведите на нее мышь.

Затем щелкните, чтобы увидеть метеонаблюдения и метеопрогнозы.

Управление картой: чтобы увеличить масштаб, щелкните зеленые кнопки с черным крестиком; чтобы уменьшить масштаб, щелкните зеленую кнопку с тире; для просмотра соседних карт щелкайте зеленые стрелки.


METAR-TAF: